Time,TemperatureF,DewpointF,PressureIn,WindDirection,WindDirectionDegrees,WindSpeedMPH,WindSpeedGustMPH,Humidity,HourlyPrecipIn,Conditions,Clouds,dailyrainin,SolarRadiationWatts/m^2,SoftwareType,DateUTC
2013-02-11 00:00:00,29.4,28.0,29.37,WNW,291,11.0,14.0,95,0.00,,,0.14,0,weatherlink.com 1.10,2013-02-11 06:00:00,
2013-02-11 00:15:00,29.2,28.0,29.38,NW,326,6.0,15.0,95,0.00,,,0.00,0,weatherlink.com 1.10,2013-02-11 06:15:00,
2013-02-11 00:30:00,29.0,28.0,29.39,NNW,328,6.0,16.0,94,0.00,,,0.00,0,weatherlink.com 1.10,2013-02-11 06:30:00,
2013-02-11 00:45:00,28.8,27.0,29.40,WNW,301,8.0,16.0,94,0.00,,,0.00,0,weatherlink.com 1.10,2013-02-11 06:45:00,
2013-02-11 01:00:00,28.8,27.0,29.41,NW,323,9.0,16.0,94,0.00,,,0.00,0,weatherlink.com 1.10,2013-02-11 07:00:00,
2013-02-11 01:16:00,28.9,27.0,29.42,WNW,284,12.0,16.0,94,0.00,,,0.00,0,weatherlink.com 1.10,2013-02-11 07:16:00,
2013-02-11 01:30:00,29.0,28.0,29.43,WNW,294,13.0,19.0,94,0.00,,,0.00,0,weatherlink.com 1.10,2013-02-11 07:30:00,
2013-02-11 01:45:00,29.2,28.0,29.43,NW,317,13.0,17.0,93,0.00,,,0.00,0,weatherlink.com 1.10,2013-02-11 07:45:00,
2013-02-11 02:00:00,29.3,28.0,29.45,NW,314,12.0,19.0,93,0.00,,,0.00,0,weatherlink.com 1.10,2013-02-11 08:00:00,
2013-02-11 02:15:00,29.3,27.0,29.46,WNW,302,17.0,17.0,92,0.00,,,0.00,0,weatherlink.com 1.10,2013-02-11 08:15:00,
2013-02-11 02:30:00,29.2,27.0,29.47,NW,325,12.0,21.0,91,0.00,,,0.00,0,weatherlink.com 1.10,2013-02-11 08:30:00,
2013-02-11 02:45:00,29.1,27.0,29.48,WNW,296,14.0,18.0,91,0.00,,,0.00,0,weatherlink.com 1.10,2013-02-11 08:45:00,
2013-02-11 03:01:00,28.9,26.0,29.49,NW,311,9.0,22.0,90,0.00,,,0.00,0,weatherlink.com 1.10,2013-02-11 09:01:00,
2013-02-11 03:16:00,28.8,26.0,29.50,WNW,292,15.0,19.0,90,0.00,,,0.00,0,weatherlink.com 1.10,2013-02-11 09:16:00,
2013-02-11 03:31:00,28.5,26.0,29.51,WNW,302,14.0,19.0,90,0.00,,,0.00,0,weatherlink.com 1.10,2013-02-11 09:31:00,
2013-02-11 03:46:00,28.2,26.0,29.51,WNW,300,9.0,21.0,90,0.00,,,0.00,0,weatherlink.com 1.10,2013-02-11 09:46:00,
2013-02-11 04:01:00,27.9,25.0,29.53,WNW,300,14.0,19.0,90,0.00,,,0.00,0,weatherlink.com 1.10,2013-02-11 10:01:00,
2013-02-11 04:16:00,27.8,25.0,29.54,NW,311,19.0,20.0,90,0.00,,,0.00,0,weatherlink.com 1.10,2013-02-11 10:16:00,
2013-02-11 04:31:00,27.5,25.0,29.55,NW,311,15.0,21.0,89,0.00,,,0.00,0,weatherlink.com 1.10,2013-02-11 10:31:00,
2013-02-11 04:46:00,27.2,24.0,29.57,WNW,300,11.0,22.0,89,0.00,,,0.00,0,weatherlink.com 1.10,2013-02-11 10:46:00,
2013-02-11 05:01:00,27.0,24.0,29.58,WNW,303,13.0,20.0,89,0.00,,,0.00,0,weatherlink.com 1.10,2013-02-11 11:01:00,
2013-02-11 05:16:00,26.8,24.0,29.59,NW,309,13.0,19.0,88,0.00,,,0.00,0,weatherlink.com 1.10,2013-02-11 11:16:00,
2013-02-11 05:47:00,26.3,23.0,29.62,WNW,294,11.0,21.0,86,0.00,,,0.00,0,weatherlink.com 1.10,2013-02-11 11:47:00,
2013-02-11 06:01:00,26.2,22.0,29.63,WNW,302,13.0,20.0,85,0.00,,,0.00,0,weatherlink.com 1.10,2013-02-11 12:01:00,
2013-02-11 06:16:00,26.0,22.0,29.64,WNW,299,12.0,21.0,85,0.00,,,0.00,0,weatherlink.com 1.10,2013-02-11 12:16:00,
2013-02-11 06:31:00,25.4,22.0,29.66,WNW,294,13.0,25.0,85,0.00,,,0.00,0,weatherlink.com 1.10,2013-02-11 12:31:00,
2013-02-11 06:47:00,24.7,21.0,29.67,WNW,289,10.0,21.0,84,0.00,,,0.00,0,weatherlink.com 1.10,2013-02-11 12:47:00,
2013-02-11 07:01:00,24.3,20.0,29.69,WNW,298,10.0,20.0,85,0.00,,,0.00,0,weatherlink.com 1.10,2013-02-11 13:01:00,
2013-02-11 07:32:00,24.2,21.0,29.70,WNW,294,6.0,16.0,88,0.00,,,0.00,7,weatherlink.com 1.10,2013-02-11 13:32:00,
2013-02-11 07:47:00,24.4,21.0,29.72,WNW,288,8.0,18.0,88,0.00,,,0.00,9,weatherlink.com 1.10,2013-02-11 13:47:00,
2013-02-11 08:02:00,24.8,22.0,29.73,WNW,294,8.0,20.0,87,0.00,,,0.00,28,weatherlink.com 1.10,2013-02-11 14:02:00,
2013-02-11 08:17:00,24.9,21.0,29.74,NW,306,14.0,22.0,85,0.00,,,0.00,111,weatherlink.com 1.10,2013-02-11 14:17:00,
2013-02-11 08:32:00,25.1,21.0,29.75,West,277,8.0,17.0,85,0.00,,,0.00,97,weatherlink.com 1.10,2013-02-11 14:32:00,
2013-02-11 08:47:00,24.9,21.0,29.77,WNW,298,12.0,17.0,85,0.00,,,0.00,77,weatherlink.com 1.10,2013-02-11 14:47:00,
2013-02-11 09:02:00,24.9,21.0,29.77,WNW,287,12.0,20.0,84,0.00,,,0.00,144,weatherlink.com 1.10,2013-02-11 15:02:00,
2013-02-11 09:32:00,25.5,20.0,29.80,NW,308,19.0,20.0,81,0.00,,,0.00,179,weatherlink.com 1.10,2013-02-11 15:32:00,
2013-02-11 09:47:00,25.6,20.0,29.81,West,278,7.0,19.0,80,0.00,,,0.00,214,weatherlink.com 1.10,2013-02-11 15:47:00,
2013-02-11 10:02:00,25.1,20.0,29.81,WNW,286,16.0,18.0,82,0.00,,,0.00,183,weatherlink.com 1.10,2013-02-11 16:02:00,
2013-02-11 10:17:00,24.9,20.0,29.82,West,278,9.0,21.0,83,0.00,,,0.00,248,weatherlink.com 1.10,2013-02-11 16:17:00,
2013-02-11 10:32:00,25.3,21.0,29.82,WNW,300,16.0,21.0,82,0.00,,,0.00,251,weatherlink.com 1.10,2013-02-11 16:32:00,
2013-02-11 10:47:00,25.2,20.0,29.84,WNW,302,12.0,20.0,81,0.00,,,0.00,390,weatherlink.com 1.10,2013-02-11 16:47:00,
2013-02-11 11:02:00,25.6,20.0,29.84,WNW,294,13.0,28.0,80,0.00,,,0.00,508,weatherlink.com 1.10,2013-02-11 17:02:00,
2013-02-11 11:17:00,25.7,20.0,29.86,WNW,283,14.0,27.0,79,0.00,,,0.00,404,weatherlink.com 1.10,2013-02-11 17:17:00,
2013-02-11 11:33:00,26.0,20.0,29.86,West,271,12.0,23.0,78,0.00,,,0.00,237,weatherlink.com 1.10,2013-02-11 17:33:00,
2013-02-11 11:48:00,25.6,20.0,29.87,WNW,285,12.0,22.0,79,0.00,,,0.00,369,weatherlink.com 1.10,2013-02-11 17:48:00,
2013-02-11 12:02:00,25.6,20.0,29.88,WNW,286,11.0,19.0,79,0.00,,,0.00,315,weatherlink.com 1.10,2013-02-11 18:02:00,
2013-02-11 12:17:00,25.5,20.0,29.88,WNW,287,6.0,24.0,79,0.00,,,0.00,299,weatherlink.com 1.10,2013-02-11 18:17:00,
2013-02-11 12:33:00,25.7,20.0,29.89,WNW,285,11.0,20.0,79,0.00,,,0.00,334,weatherlink.com 1.10,2013-02-11 18:33:00,
2013-02-11 12:48:00,26.0,20.0,29.89,West,279,7.0,20.0,78,0.00,,,0.00,367,weatherlink.com 1.10,2013-02-11 18:48:00,
2013-02-11 13:03:00,25.5,20.0,29.90,West,273,19.0,21.0,79,0.00,,,0.00,278,weatherlink.com 1.10,2013-02-11 19:03:00,
2013-02-11 13:18:00,25.2,20.0,29.90,West,279,16.0,24.0,80,0.00,,,0.00,329,weatherlink.com 1.10,2013-02-11 19:18:00,
2013-02-11 13:33:00,25.3,20.0,29.91,West,276,13.0,21.0,79,0.00,,,0.00,211,weatherlink.com 1.10,2013-02-11 19:33:00,
2013-02-11 13:48:00,25.2,20.0,29.91,WNW,283,13.0,23.0,80,0.00,,,0.00,202,weatherlink.com 1.10,2013-02-11 19:48:00,
2013-02-11 14:03:00,24.9,19.0,29.92,WNW,298,11.0,20.0,79,0.00,,,0.00,204,weatherlink.com 1.10,2013-02-11 20:03:00,
2013-02-11 14:18:00,24.9,19.0,29.92,WNW,294,13.0,24.0,79,0.00,,,0.00,232,weatherlink.com 1.10,2013-02-11 20:18:00,
2013-02-11 14:33:00,25.1,20.0,29.93,WNW,282,15.0,23.0,80,0.00,,,0.00,207,weatherlink.com 1.10,2013-02-11 20:33:00,
2013-02-11 14:48:00,24.8,20.0,29.94,West,271,5.0,19.0,81,0.00,,,0.00,197,weatherlink.com 1.10,2013-02-11 20:48:00,
2013-02-11 15:03:00,24.4,19.0,29.95,NW,311,15.0,20.0,79,0.00,,,0.00,202,weatherlink.com 1.10,2013-02-11 21:03:00,
2013-02-11 15:18:00,24.1,19.0,29.96,WNW,289,13.0,22.0,80,0.00,,,0.00,137,weatherlink.com 1.10,2013-02-11 21:18:00,
2013-02-11 15:48:00,23.1,17.0,29.97,West,273,9.0,23.0,78,0.00,,,0.00,142,weatherlink.com 1.10,2013-02-11 21:48:00,
2013-02-11 16:03:00,22.8,17.0,29.98,WNW,292,5.0,20.0,78,0.00,,,0.00,102,weatherlink.com 1.10,2013-02-11 22:03:00,
2013-02-11 16:18:00,22.8,18.0,29.98,West,278,3.0,18.0,80,0.00,,,0.00,69,weatherlink.com 1.10,2013-02-11 22:18:00,
2013-02-11 16:33:00,22.2,17.0,29.99,West,266,7.0,19.0,81,0.00,,,0.00,39,weatherlink.com 1.10,2013-02-11 22:33:00,
2013-02-11 16:48:00,21.9,17.0,29.99,West,267,8.0,19.0,81,0.00,,,0.00,42,weatherlink.com 1.10,2013-02-11 22:48:00,
2013-02-11 17:03:00,21.7,17.0,30.00,West,265,6.0,15.0,81,0.00,,,0.00,26,weatherlink.com 1.10,2013-02-11 23:03:00,
2013-02-11 17:18:00,21.5,17.0,30.00,West,275,7.0,16.0,81,0.00,,,0.00,12,weatherlink.com 1.10,2013-02-11 23:18:00,
2013-02-11 17:33:00,21.2,16.0,30.01,West,277,10.0,17.0,80,0.00,,,0.00,0,weatherlink.com 1.10,2013-02-11 23:33:00,
2013-02-11 17:49:00,20.9,15.0,30.01,WNW,290,14.0,17.0,79,0.00,,,0.00,0,weatherlink.com 1.10,2013-02-11 23:49:00,
2013-02-11 18:03:00,20.8,15.0,30.02,West,281,10.0,16.0,79,0.00,,,0.00,0,weatherlink.com 1.10,2013-02-12 00:03:00,
2013-02-11 18:18:00,20.8,15.0,30.02,WNW,294,5.0,16.0,79,0.00,,,0.00,0,weatherlink.com 1.10,2013-02-12 00:18:00,
2013-02-11 18:34:00,20.7,15.0,30.03,WNW,287,7.0,13.0,80,0.00,,,0.00,0,weatherlink.com 1.10,2013-02-12 00:34:00,
2013-02-11 18:48:00,20.7,15.0,30.03,WNW,292,1.0,16.0,79,0.00,,,0.00,0,weatherlink.com 1.10,2013-02-12 00:48:00,
2013-02-11 19:03:00,20.7,15.0,30.03,NW,314,0.0,13.0,79,0.00,,,0.00,0,weatherlink.com 1.10,2013-02-12 01:03:00,
2013-02-11 19:19:00,20.7,15.0,30.03,WNW,293,7.0,12.0,80,0.00,,,0.00,0,weatherlink.com 1.10,2013-02-12 01:19:00,
2013-02-11 19:49:00,20.8,16.0,30.04,West,279,1.0,11.0,81,0.00,,,0.00,0,weatherlink.com 1.10,2013-02-12 01:49:00,
2013-02-11 20:04:00,20.8,16.0,30.04,West,275,0.0,10.0,81,0.00,,,0.00,0,weatherlink.com 1.10,2013-02-12 02:04:00,
2013-02-11 20:19:00,21.0,16.0,30.05,West,271,5.0,10.0,81,0.00,,,0.00,0,weatherlink.com 1.10,2013-02-12 02:19:00,
2013-02-11 20:34:00,21.1,16.0,30.05,West,268,0.0,9.0,82,0.00,,,0.00,0,weatherlink.com 1.10,2013-02-12 02:34:00,
2013-02-11 20:49:00,20.9,16.0,30.05,West,266,7.0,8.0,81,0.00,,,0.00,0,weatherlink.com 1.10,2013-02-12 02:49:00,
2013-02-11 21:04:00,20.4,15.0,30.05,West,270,0.0,9.0,81,0.00,,,0.00,0,weatherlink.com 1.10,2013-02-12 03:04:00,
2013-02-11 21:19:00,19.7,15.0,30.06,West,261,0.0,7.0,81,0.00,,,0.00,0,weatherlink.com 1.10,2013-02-12 03:19:00,
2013-02-11 21:34:00,18.9,14.0,30.06,West,273,3.0,8.0,81,0.00,,,0.00,0,weatherlink.com 1.10,2013-02-12 03:34:00,
2013-02-11 21:49:00,18.2,13.0,30.07,WNW,285,7.0,12.0,81,0.00,,,0.00,0,weatherlink.com 1.10,2013-02-12 03:49:00,
2013-02-11 22:04:00,17.6,13.0,30.07,WNW,301,7.0,10.0,81,0.00,,,0.00,0,weatherlink.com 1.10,2013-02-12 04:04:00,
2013-02-11 22:19:00,17.5,13.0,30.07,West,279,6.0,9.0,81,0.00,,,0.00,0,weatherlink.com 1.10,2013-02-12 04:19:00,
2013-02-11 22:34:00,17.3,12.0,30.08,WNW,290,0.0,9.0,80,0.00,,,0.00,0,weatherlink.com 1.10,2013-02-12 04:34:00,
2013-02-11 22:49:00,17.0,12.0,30.07,WNW,287,0.0,5.0,81,0.00,,,0.00,0,weatherlink.com 1.10,2013-02-12 04:49:00,
2013-02-11 23:04:00,16.8,12.0,30.07,WNW,287,0.0,2.0,81,0.00,,,0.00,0,weatherlink.com 1.10,2013-02-12 05:04:00,
2013-02-11 23:19:00,16.6,12.0,30.07,WNW,286,0.0,0.0,81,0.00,,,0.00,0,weatherlink.com 1.10,2013-02-12 05:19:00,
2013-02-11 23:34:00,16.6,12.0,30.08,WNW,286,0.0,0.0,82,0.00,,,0.00,0,weatherlink.com 1.10,2013-02-12 05:34:00,
2013-02-11 23:49:00,16.9,13.0,30.08,WNW,286,0.0,0.0,83,0.00,,,0.00,0,weatherlink.com 1.10,2013-02-12 05:49:00,